createdAt,value
2023-01-29T00:01:45.450Z,-0.04
2023-01-29T00:04:16.925Z,-0.04
2023-01-29T00:06:47.571Z,-0.04
2023-01-29T00:09:18.680Z,-0.02
2023-01-29T00:11:49.487Z,0.04
2023-01-29T00:14:20.338Z,0.09
2023-01-29T00:16:51.881Z,0.13
2023-01-29T00:19:23.718Z,0.19
2023-01-29T00:22:01.022Z,0.25
2023-01-29T00:24:31.871Z,0.26
2023-01-29T00:27:03.182Z,0.21
2023-01-29T00:29:34.032Z,0.16
2023-01-29T00:32:05.597Z,0.11
2023-01-29T00:34:36.412Z,0.05
2023-01-29T00:37:08.991Z,0.01
2023-01-29T00:39:47.923Z,0.02
2023-01-29T00:42:36.826Z,0.00
2023-01-29T00:45:10.964Z,-0.01
2023-01-29T00:47:41.695Z,-0.02
2023-01-29T00:50:14.624Z,-0.06
2023-01-29T00:52:46.019Z,-0.09
2023-01-29T00:55:16.878Z,-0.11
2023-01-29T00:57:47.584Z,-0.12
2023-01-29T01:00:20.494Z,-0.10
2023-01-29T01:03:09.681Z,-0.10
2023-01-29T01:05:40.312Z,-0.10
2023-01-29T01:08:25.730Z,-0.11
2023-01-29T01:11:04.303Z,-0.08
2023-01-29T01:13:36.332Z,-0.10
2023-01-29T01:16:12.424Z,-0.12
2023-01-29T01:18:43.899Z,-0.15
2023-01-29T01:21:14.981Z,-0.12
2023-01-29T01:23:47.258Z,-0.09
2023-01-29T01:26:17.986Z,-0.08
2023-01-29T01:28:48.683Z,-0.09
2023-01-29T01:31:19.858Z,-0.12
2023-01-29T01:33:51.625Z,-0.15
2023-01-29T01:36:24.134Z,-0.18
2023-01-29T01:38:55.033Z,-0.21
2023-01-29T01:41:25.698Z,-0.23
2023-01-29T01:43:58.596Z,-0.24
2023-01-29T01:46:31.932Z,-0.26
2023-01-29T01:49:02.835Z,-0.29
2023-01-29T01:51:36.406Z,-0.32
2023-01-29T01:54:12.238Z,-0.32
2023-01-29T01:56:45.940Z,-0.31
2023-01-29T01:59:20.179Z,-0.32
2023-01-29T02:01:55.079Z,-0.32
2023-01-29T02:04:45.301Z,-0.33
2023-01-29T02:07:34.819Z,-0.34
2023-01-29T02:10:11.716Z,-0.36
2023-01-29T02:12:44.272Z,-0.36
2023-01-29T02:15:15.428Z,-0.36
2023-01-29T02:17:48.451Z,-0.39
2023-01-29T02:20:24.408Z,-0.41
2023-01-29T02:23:30.730Z,-0.39
2023-01-29T02:26:16.670Z,-0.37
2023-01-29T02:28:53.849Z,-0.42
2023-01-29T02:31:34.822Z,-0.48
2023-01-29T02:34:13.046Z,-0.52
2023-01-29T02:36:51.746Z,-0.52
2023-01-29T02:39:30.237Z,-0.52
2023-01-29T02:42:12.330Z,-0.56
2023-01-29T02:44:49.370Z,-0.60
2023-01-29T02:47:23.880Z,-0.62
2023-01-29T02:50:07.784Z,-0.63
2023-01-29T02:52:49.749Z,-0.63
2023-01-29T02:55:26.948Z,-0.65
2023-01-29T02:58:02.604Z,-0.68
2023-01-29T03:00:39.690Z,-0.70
2023-01-29T03:03:15.669Z,-0.69
2023-01-29T03:05:58.209Z,-0.68
2023-01-29T03:08:43.342Z,-0.70
2023-01-29T03:11:16.453Z,-0.74
2023-01-29T03:13:53.917Z,-0.79
2023-01-29T03:16:33.071Z,-0.83
2023-01-29T03:19:10.483Z,-0.84
2023-01-29T03:21:59.548Z,-0.85
2023-01-29T03:24:58.949Z,-0.86
2023-01-29T03:27:52.091Z,-0.85
2023-01-29T03:30:44.034Z,-0.86
2023-01-29T03:33:46.998Z,-0.92
2023-01-29T03:36:23.263Z,-0.95
2023-01-29T03:38:54.082Z,-0.99
2023-01-29T03:41:34.314Z,-1.01
2023-01-29T03:44:16.349Z,-1.04
2023-01-29T03:46:53.735Z,-1.07
2023-01-29T03:49:33.725Z,-1.09
2023-01-29T03:52:10.745Z,-1.11
2023-01-29T03:54:48.963Z,-1.10
2023-01-29T03:57:29.335Z,-1.14
2023-01-29T04:00:10.023Z,-1.18
2023-01-29T04:03:08.353Z,-1.25
2023-01-29T04:05:45.021Z,-1.28
2023-01-29T04:08:27.674Z,-1.29
2023-01-29T04:11:03.271Z,-1.32
2023-01-29T04:13:35.832Z,-1.33
2023-01-29T04:16:13.117Z,-1.32
2023-01-29T04:19:00.180Z,-1.27
2023-01-29T04:21:37.621Z,-1.25
2023-01-29T04:24:10.760Z,-1.25
2023-01-29T04:26:56.722Z,-1.27
2023-01-29T04:29:41.637Z,-1.30
2023-01-29T04:32:19.960Z,-1.30
2023-01-29T04:35:01.434Z,-1.32
2023-01-29T04:37:41.572Z,-1.32
2023-01-29T04:40:21.292Z,-1.33
2023-01-29T04:43:05.227Z,-1.36
2023-01-29T04:45:43.593Z,-1.39
2023-01-29T04:48:23.836Z,-1.43
2023-01-29T04:51:01.991Z,-1.47
2023-01-29T04:53:45.606Z,-1.50
2023-01-29T04:56:22.521Z,-1.51
2023-01-29T04:58:56.899Z,-1.54
2023-01-29T05:01:33.186Z,-1.55
2023-01-29T05:04:07.812Z,-1.50
2023-01-29T05:06:40.603Z,-1.43
2023-01-29T05:09:14.014Z,-1.40
2023-01-29T05:11:43.744Z,-1.36
2023-01-29T05:14:18.125Z,-1.32
2023-01-29T05:16:52.807Z,-1.38
2023-01-29T05:19:23.542Z,-1.34
2023-01-29T05:21:55.236Z,-1.37
2023-01-29T05:24:29.062Z,-1.39
2023-01-29T05:27:17.669Z,-1.37
2023-01-29T05:29:49.894Z,-1.35
2023-01-29T05:32:20.584Z,-1.33
2023-01-29T05:34:51.221Z,-1.34
2023-01-29T05:37:22.150Z,-1.41
2023-01-29T05:39:52.787Z,-1.46
2023-01-29T05:42:24.236Z,-1.49
2023-01-29T05:44:54.932Z,-1.47
2023-01-29T05:47:25.603Z,-1.45
2023-01-29T05:49:56.336Z,-1.43
2023-01-29T05:52:27.109Z,-1.39
2023-01-29T05:54:57.759Z,-1.38
2023-01-29T05:57:28.378Z,-1.39
2023-01-29T05:59:59.116Z,-1.40
2023-01-29T06:02:32.433Z,-1.41
2023-01-29T06:05:03.179Z,-1.40
2023-01-29T06:07:33.934Z,-1.41
2023-01-29T06:10:05.017Z,-1.41
2023-01-29T06:12:35.672Z,-1.39
2023-01-29T06:15:07.818Z,-1.39
2023-01-29T06:17:38.509Z,-1.37
2023-01-29T06:20:13.451Z,-1.37
2023-01-29T06:22:44.364Z,-1.40
2023-01-29T06:25:15.173Z,-1.43
2023-01-29T06:27:45.878Z,-1.46
2023-01-29T06:30:18.383Z,-1.45
2023-01-29T06:32:49.386Z,-1.39
2023-01-29T06:35:20.336Z,-1.32
2023-01-29T06:37:51.024Z,-1.28
2023-01-29T06:40:22.176Z,-1.24
2023-01-29T06:42:52.762Z,-1.18
2023-01-29T06:45:24.169Z,-1.11
2023-01-29T06:47:54.888Z,-1.04
2023-01-29T06:50:25.733Z,-0.97
2023-01-29T06:52:56.622Z,-0.96
2023-01-29T06:55:27.379Z,-0.96
2023-01-29T06:57:58.117Z,-1.01
2023-01-29T07:00:30.612Z,-1.05
2023-01-29T07:03:02.437Z,-1.06
2023-01-29T07:05:33.343Z,-1.05
2023-01-29T07:08:04.232Z,-1.02
2023-01-29T07:10:35.055Z,-0.99
2023-01-29T07:13:05.759Z,-0.97
2023-01-29T07:15:37.321Z,-0.97
2023-01-29T07:18:12.600Z,-0.96
2023-01-29T07:20:44.498Z,-0.95
2023-01-29T07:23:17.566Z,-0.93
2023-01-29T07:25:49.822Z,-0.86
2023-01-29T07:28:21.578Z,-0.84
2023-01-29T07:30:56.475Z,-0.79
2023-01-29T07:33:27.520Z,-0.73
2023-01-29T07:35:58.291Z,-0.73
2023-01-29T07:38:29.244Z,-0.73
2023-01-29T07:41:01.362Z,-0.72
2023-01-29T07:43:33.666Z,-0.70
2023-01-29T07:46:06.723Z,-0.69
2023-01-29T07:48:37.472Z,-0.70
2023-01-29T07:51:08.854Z,-0.66
2023-01-29T07:53:39.632Z,-0.62
2023-01-29T07:56:10.958Z,-0.60
2023-01-29T07:58:41.604Z,-0.58
2023-01-29T08:01:12.346Z,-0.53
2023-01-29T08:03:43.239Z,-0.51
2023-01-29T08:06:13.946Z,-0.47
2023-01-29T08:08:44.700Z,-0.45
2023-01-29T08:11:15.445Z,-0.42
2023-01-29T08:13:50.160Z,-0.40
2023-01-29T08:16:21.017Z,-0.38
2023-01-29T08:18:51.737Z,-0.34
2023-01-29T08:21:22.439Z,-0.29
2023-01-29T08:23:53.379Z,-0.23
2023-01-29T08:26:26.521Z,-0.19
2023-01-29T08:28:57.379Z,-0.20
2023-01-29T08:31:28.834Z,-0.19
2023-01-29T08:34:22.122Z,-0.18
2023-01-29T08:36:55.877Z,-0.18
2023-01-29T08:39:26.645Z,-0.19
2023-01-29T08:42:00.313Z,-0.21
2023-01-29T08:44:39.731Z,-0.21
2023-01-29T08:47:12.845Z,-0.15
2023-01-29T08:49:43.698Z,-0.10
2023-01-29T08:52:14.609Z,-0.08
2023-01-29T08:54:45.281Z,-0.06
2023-01-29T08:57:15.915Z,-0.02
2023-01-29T08:59:46.791Z,-0.02
2023-01-29T09:02:17.521Z,-0.02
2023-01-29T09:04:48.318Z,-0.01
2023-01-29T09:07:21.726Z,-0.07
2023-01-29T09:09:52.628Z,0.01
2023-01-29T09:12:23.366Z,0.07
2023-01-29T09:14:54.123Z,0.11
2023-01-29T09:17:24.963Z,0.12
2023-01-29T09:19:55.938Z,0.14
2023-01-29T09:22:26.751Z,0.16
2023-01-29T09:24:57.498Z,0.22
2023-01-29T09:27:28.286Z,0.25
2023-01-29T09:29:59.142Z,0.26
2023-01-29T09:32:52.583Z,0.27
2023-01-29T09:35:19.687Z,0.26
2023-01-29T09:37:52.165Z,0.25
2023-01-29T09:40:28.278Z,0.26
2023-01-29T09:43:03.741Z,0.26
2023-01-29T09:45:35.304Z,0.24
2023-01-29T09:48:12.582Z,0.22
2023-01-29T09:50:48.064Z,0.24
2023-01-29T09:53:22.775Z,0.26
2023-01-29T09:55:57.389Z,0.30
2023-01-29T09:58:33.330Z,0.34
2023-01-29T10:01:13.987Z,0.42
2023-01-29T10:04:03.530Z,0.49
2023-01-29T10:06:49.176Z,0.55
2023-01-29T10:09:34.673Z,0.62
2023-01-29T10:12:16.941Z,0.68
2023-01-29T10:15:00.695Z,0.72
2023-01-29T10:17:57.152Z,0.73
2023-01-29T10:20:58.289Z,0.77
2023-01-29T10:23:34.373Z,0.83
2023-01-29T10:26:05.649Z,0.78
2023-01-29T10:28:43.109Z,0.90
2023-01-29T10:31:19.094Z,0.91
2023-01-29T10:34:08.801Z,0.88
2023-01-29T10:36:46.467Z,0.84
2023-01-29T10:39:21.038Z,0.77
2023-01-29T10:42:05.750Z,0.72
2023-01-29T10:44:51.400Z,0.71
2023-01-29T10:47:48.812Z,0.72
2023-01-29T10:50:26.138Z,0.75
2023-01-29T10:53:13.399Z,0.75
2023-01-29T10:55:55.752Z,0.74
2023-01-29T10:58:35.376Z,0.73
2023-01-29T11:01:06.423Z,0.76
2023-01-29T11:03:37.609Z,0.78
2023-01-29T11:06:15.661Z,0.81
2023-01-29T11:08:53.935Z,0.81
2023-01-29T11:11:33.210Z,0.83
2023-01-29T11:14:09.124Z,0.88
2023-01-29T11:16:47.006Z,0.94
2023-01-29T11:19:18.244Z,1.02
2023-01-29T11:22:01.016Z,1.08
2023-01-29T11:24:31.997Z,1.11
2023-01-29T11:27:04.473Z,1.12
2023-01-29T11:29:40.462Z,1.11
2023-01-29T11:32:25.457Z,1.11
2023-01-29T11:35:05.120Z,1.13
2023-01-29T11:37:38.899Z,1.17
2023-01-29T11:40:34.707Z,1.19
2023-01-29T11:43:19.324Z,1.21
2023-01-29T11:45:51.732Z,1.21
2023-01-29T11:48:25.179Z,1.18
2023-01-29T11:51:00.706Z,1.17
2023-01-29T11:53:39.372Z,1.17
2023-01-29T11:56:21.761Z,1.18
2023-01-29T11:58:53.931Z,1.21
2023-01-29T12:01:34.523Z,1.24
2023-01-29T12:04:15.050Z,1.25
2023-01-29T12:06:51.986Z,1.24
2023-01-29T12:09:27.227Z,1.24
2023-01-29T12:12:17.818Z,1.25
2023-01-29T12:14:48.860Z,1.28
2023-01-29T12:17:26.449Z,1.34
2023-01-29T12:20:00.807Z,1.35
2023-01-29T12:22:41.267Z,1.36
2023-01-29T12:25:23.646Z,1.38
2023-01-29T12:28:00.516Z,1.40
2023-01-29T12:30:39.374Z,1.41
2023-01-29T12:33:19.852Z,1.41
2023-01-29T12:35:54.907Z,1.42
2023-01-29T12:38:26.821Z,1.44
2023-01-29T12:41:07.593Z,1.46
2023-01-29T12:43:42.625Z,1.50
2023-01-29T12:46:23.033Z,1.52
2023-01-29T12:48:58.879Z,1.55
2023-01-29T12:51:34.815Z,1.58
2023-01-29T12:54:09.987Z,1.61
2023-01-29T12:56:47.227Z,1.63
2023-01-29T12:59:29.133Z,1.66
2023-01-29T13:02:07.736Z,1.69
2023-01-29T13:04:43.499Z,1.70
2023-01-29T13:07:19.584Z,1.72
2023-01-29T13:09:54.439Z,1.71
2023-01-29T13:12:26.553Z,1.71
2023-01-29T13:15:01.570Z,1.73
2023-01-29T13:17:38.224Z,1.76
2023-01-29T13:20:17.991Z,1.78
2023-01-29T13:22:49.635Z,1.79
2023-01-29T13:25:21.904Z,1.80
2023-01-29T13:27:52.907Z,1.84
2023-01-29T13:30:32.530Z,1.83
2023-01-29T13:33:12.843Z,1.83
2023-01-29T13:35:46.694Z,1.83
2023-01-29T13:38:30.510Z,1.83
2023-01-29T13:41:04.260Z,1.85
2023-01-29T13:43:38.409Z,1.87
2023-01-29T13:46:14.314Z,1.91
2023-01-29T13:48:47.694Z,1.92
2023-01-29T13:51:23.013Z,1.91
2023-01-29T13:53:58.524Z,1.88
2023-01-29T13:56:43.957Z,1.86
2023-01-29T13:59:46.114Z,1.85
2023-01-29T14:02:28.792Z,1.80
2023-01-29T14:05:30.273Z,1.75
2023-01-29T14:08:01.884Z,1.69
2023-01-29T14:10:34.107Z,1.65
2023-01-29T14:13:36.066Z,1.62
2023-01-29T14:16:35.029Z,1.61
2023-01-29T14:19:07.869Z,1.62
2023-01-29T14:21:39.917Z,1.62
2023-01-29T14:24:20.956Z,1.62
2023-01-29T14:26:57.164Z,1.61
2023-01-29T14:29:35.471Z,1.61
2023-01-29T14:32:19.405Z,1.60
2023-01-29T14:34:52.214Z,1.62
2023-01-29T14:37:33.911Z,1.64
2023-01-29T14:40:21.640Z,1.65
2023-01-29T14:43:01.102Z,1.67
2023-01-29T14:45:34.029Z,1.68
2023-01-29T14:48:35.545Z,1.68
2023-01-29T14:51:12.155Z,1.66
2023-01-29T14:54:03.598Z,1.64
2023-01-29T14:56:38.195Z,1.62
2023-01-29T14:59:20.839Z,1.60
2023-01-29T15:01:56.379Z,1.57
2023-01-29T15:04:30.018Z,1.55
2023-01-29T15:07:06.223Z,1.54
2023-01-29T15:09:43.803Z,1.53
2023-01-29T15:12:24.223Z,1.50
2023-01-29T15:15:04.808Z,1.50
2023-01-29T15:17:43.282Z,1.49
2023-01-29T15:20:35.271Z,1.47
2023-01-29T15:23:25.034Z,1.45
2023-01-29T15:25:59.138Z,1.45
2023-01-29T15:28:32.596Z,1.42
2023-01-29T15:31:05.605Z,1.37
2023-01-29T15:33:38.798Z,1.37
2023-01-29T15:36:18.870Z,1.35
2023-01-29T15:38:49.679Z,1.32
2023-01-29T15:41:23.794Z,1.29
2023-01-29T15:43:59.711Z,1.28
2023-01-29T15:46:33.941Z,1.28
2023-01-29T15:49:10.034Z,1.31
2023-01-29T15:51:41.507Z,1.34
2023-01-29T15:54:15.993Z,1.36
2023-01-29T15:56:51.637Z,1.35
2023-01-29T15:59:26.886Z,1.34
2023-01-29T16:01:58.000Z,1.34
2023-01-29T16:04:31.782Z,1.32
2023-01-29T16:07:04.353Z,1.30
2023-01-29T16:09:35.348Z,1.29
2023-01-29T16:12:07.653Z,1.25
2023-01-29T16:14:39.187Z,1.21
2023-01-29T16:17:28.965Z,1.21
2023-01-29T16:20:00.732Z,1.22
2023-01-29T16:22:35.559Z,1.22
2023-01-29T16:25:09.012Z,1.23
2023-01-29T16:27:43.286Z,1.21
2023-01-29T16:30:17.460Z,1.18
2023-01-29T16:32:48.338Z,1.21
2023-01-29T16:35:20.003Z,1.23
2023-01-29T16:37:52.559Z,1.26
2023-01-29T16:40:32.972Z,1.29
2023-01-29T16:43:49.781Z,1.28
2023-01-29T16:46:25.218Z,1.29
2023-01-29T16:48:56.480Z,1.33
2023-01-29T16:51:32.259Z,1.35
2023-01-29T16:54:08.376Z,1.38
2023-01-29T16:56:40.785Z,1.41
2023-01-29T16:59:21.332Z,1.42
2023-01-29T17:01:52.123Z,1.41
2023-01-29T17:04:23.658Z,1.35
2023-01-29T17:06:58.970Z,1.34
2023-01-29T17:09:32.466Z,1.34
2023-01-29T17:12:06.091Z,1.35
2023-01-29T17:14:38.615Z,1.36
2023-01-29T17:17:16.034Z,1.37
2023-01-29T17:19:47.038Z,1.40
2023-01-29T17:22:17.743Z,1.41
2023-01-29T17:24:51.533Z,1.41
2023-01-29T17:27:23.660Z,1.42
2023-01-29T17:29:54.597Z,1.44
2023-01-29T17:32:45.208Z,1.44
2023-01-29T17:35:19.269Z,1.41
2023-01-29T17:37:50.155Z,1.36
2023-01-29T17:40:32.459Z,1.31
2023-01-29T17:43:03.021Z,1.25
2023-01-29T17:45:33.741Z,1.22
2023-01-29T17:48:04.794Z,1.23
2023-01-29T17:50:39.208Z,1.24
2023-01-29T17:53:09.825Z,1.21
2023-01-29T17:55:40.462Z,1.19
2023-01-29T17:58:15.990Z,1.16
2023-01-29T18:00:46.839Z,1.13
2023-01-29T18:03:17.843Z,1.09
2023-01-29T18:05:50.789Z,1.07
2023-01-29T18:08:27.661Z,1.05
2023-01-29T18:10:58.455Z,1.03
2023-01-29T18:13:29.559Z,1.01
2023-01-29T18:16:00.440Z,0.97
2023-01-29T18:18:31.045Z,0.94
2023-01-29T18:21:01.736Z,0.91
2023-01-29T18:23:33.200Z,0.91
2023-01-29T18:26:04.114Z,0.91
2023-01-29T18:28:34.983Z,0.88
2023-01-29T18:31:06.475Z,0.83
2023-01-29T18:33:37.920Z,0.80
2023-01-29T18:36:10.587Z,0.77
2023-01-29T18:38:41.408Z,0.74
2023-01-29T18:41:13.464Z,0.69
2023-01-29T18:43:44.382Z,0.62
2023-01-29T18:46:15.306Z,0.57
2023-01-29T18:48:46.211Z,0.53
2023-01-29T18:51:16.898Z,0.48
2023-01-29T18:53:52.238Z,0.45
2023-01-29T18:56:23.039Z,0.42
2023-01-29T18:58:57.255Z,0.39
2023-01-29T19:01:27.893Z,0.34
2023-01-29T19:04:00.280Z,0.35
2023-01-29T19:06:31.378Z,0.35
2023-01-29T19:09:02.002Z,0.34
2023-01-29T19:11:32.673Z,0.33
2023-01-29T19:14:03.270Z,0.32
2023-01-29T19:16:34.088Z,0.34
2023-01-29T19:19:04.933Z,0.36
2023-01-29T19:21:37.194Z,0.35
2023-01-29T19:24:11.721Z,0.36
2023-01-29T19:26:42.405Z,0.37
2023-01-29T19:29:13.375Z,0.38
2023-01-29T19:31:44.147Z,0.38
2023-01-29T19:34:15.067Z,0.38
2023-01-29T19:36:45.838Z,0.37
2023-01-29T19:39:16.851Z,0.36
2023-01-29T19:41:47.462Z,0.34
2023-01-29T19:44:18.149Z,0.33
2023-01-29T19:46:48.842Z,0.33
2023-01-29T19:49:19.742Z,0.32
2023-01-29T19:51:50.386Z,0.31
2023-01-29T19:54:22.080Z,0.31
2023-01-29T19:56:53.445Z,0.29
2023-01-29T19:59:24.494Z,0.29
2023-01-29T20:01:55.303Z,0.30
2023-01-29T20:04:27.063Z,0.29
2023-01-29T20:06:57.874Z,0.29
2023-01-29T20:09:30.440Z,0.30
2023-01-29T20:12:01.404Z,0.29
2023-01-29T20:14:32.475Z,0.23
2023-01-29T20:17:03.752Z,0.27
2023-01-29T20:19:34.865Z,0.25
2023-01-29T20:22:06.745Z,0.23
2023-01-29T20:24:42.114Z,0.21
2023-01-29T20:27:16.009Z,0.19
2023-01-29T20:29:46.685Z,0.17
2023-01-29T20:32:17.482Z,0.11
2023-01-29T20:34:52.051Z,0.05
2023-01-29T20:37:23.104Z,-0.02
2023-01-29T20:39:54.094Z,-0.08
2023-01-29T20:42:24.854Z,-0.12
2023-01-29T20:44:55.816Z,-0.15
2023-01-29T20:47:26.759Z,-0.19
2023-01-29T20:50:00.071Z,-0.22
2023-01-29T20:52:29.374Z,-0.26
2023-01-29T20:55:00.334Z,-0.30
2023-01-29T20:57:31.208Z,-0.33
2023-01-29T21:00:01.964Z,-0.32
2023-01-29T21:02:33.877Z,-0.30
2023-01-29T21:05:06.480Z,-0.31
2023-01-29T21:07:37.303Z,-0.32
2023-01-29T21:10:11.842Z,-0.31
2023-01-29T21:12:42.665Z,-0.32
2023-01-29T21:15:14.285Z,-0.35
2023-01-29T21:17:44.948Z,-0.36
2023-01-29T21:20:17.180Z,-0.34
2023-01-29T21:22:49.257Z,-0.34
2023-01-29T21:25:21.635Z,-0.35
2023-01-29T21:27:52.593Z,-0.33
2023-01-29T21:30:24.055Z,-0.30
2023-01-29T21:32:55.003Z,-0.30
2023-01-29T21:35:25.892Z,-0.30
2023-01-29T21:37:57.455Z,-0.27
2023-01-29T21:40:30.609Z,-0.23
2023-01-29T21:43:13.472Z,-0.20
2023-01-29T21:45:45.313Z,-0.18
2023-01-29T21:48:16.138Z,-0.16
2023-01-29T21:50:48.729Z,-0.16
2023-01-29T21:53:22.526Z,-0.14
2023-01-29T21:55:53.874Z,-0.12
2023-01-29T21:58:24.873Z,-0.10
2023-01-29T22:00:55.908Z,-0.07
2023-01-29T22:03:26.809Z,-0.07
2023-01-29T22:05:57.601Z,-0.04
2023-01-29T22:08:28.698Z,-0.03
2023-01-29T22:10:59.873Z,-0.03
2023-01-29T22:13:31.081Z,-0.04
2023-01-29T22:16:02.695Z,-0.04
2023-01-29T22:18:33.477Z,-0.02
2023-01-29T22:21:04.967Z,0.00
2023-01-29T22:23:35.824Z,0.01
2023-01-29T22:26:08.993Z,-0.03
2023-01-29T22:28:39.928Z,0.00
2023-01-29T22:31:11.244Z,-0.06
2023-01-29T22:33:42.335Z,-0.03
2023-01-29T22:36:13.433Z,-0.02
2023-01-29T22:38:45.959Z,-0.02
2023-01-29T22:41:19.260Z,-0.05
2023-01-29T22:43:48.483Z,-0.06
2023-01-29T22:46:19.206Z,-0.08
2023-01-29T22:48:50.285Z,-0.11
2023-01-29T22:51:21.630Z,-0.10
2023-01-29T22:53:53.857Z,-0.09
2023-01-29T22:56:26.545Z,-0.08
2023-01-29T22:58:58.881Z,-0.08
2023-01-29T23:01:31.394Z,-0.08
2023-01-29T23:04:02.144Z,-0.10
2023-01-29T23:06:32.997Z,-0.14
2023-01-29T23:09:03.700Z,-0.15
2023-01-29T23:11:34.521Z,-0.16
2023-01-29T23:14:05.332Z,-0.13
2023-01-29T23:16:36.290Z,-0.12
2023-01-29T23:19:07.535Z,-0.11
2023-01-29T23:21:38.394Z,-0.09
2023-01-29T23:24:11.594Z,-0.10
2023-01-29T23:27:00.108Z,-0.09
2023-01-29T23:29:30.786Z,-0.09
2023-01-29T23:32:01.453Z,-0.10
2023-01-29T23:34:32.321Z,-0.11
2023-01-29T23:37:03.118Z,-0.11
2023-01-29T23:39:34.190Z,-0.12
2023-01-29T23:42:05.329Z,-0.13
2023-01-29T23:44:36.158Z,-0.13
2023-01-29T23:47:07.164Z,-0.13
2023-01-29T23:49:38.523Z,-0.13
2023-01-29T23:52:09.481Z,-0.14
2023-01-29T23:54:42.560Z,-0.12
2023-01-29T23:57:13.212Z,-0.09
2023-01-29T23:59:44.069Z,-0.08
